Time;durP1;ratioP1;P1;durP2;ratioP2;P2;SDS_P1;SDS_P2;PMS_P1;PMS_P2;Temp;Humidity;BMP_temperature;BMP_pressure;BME280_temperature;BME280_humidity;BME280_pressure;Samples;Min_cycle;Max_cycle;Signal;HPM_P1;HPM_P2
2021/12/16 00:02:07;;;;;;;66.27;55.07;;;;;;;4.11;78.50;102760.41;4931674;29;20067;-83
2021/12/16 00:05:15;;;;;;;64.73;54.77;;;;;;;4.16;78.02;102778.69;4931245;29;20535;-81
2021/12/16 00:07:35;;;;;;;65.33;54.40;;;;;;;4.20;78.37;102788.19;4931772;29;20082;-82
2021/12/16 00:29:55;;;;;;;56.17;49.43;;;;;;;4.10;78.24;102789.38;4931623;29;20052;-84
2021/12/16 00:34:57;;;;;;;61.93;51.47;;;;;;;3.99;77.95;102766.00;4931608;29;20151;-84
2021/12/16 00:37:26;;;;;;;59.67;51.27;;;;;;;4.11;77.79;102793.75;4914556;29;20061;-82
2021/12/16 00:39:54;;;;;;;59.93;52.27;;;;;;;4.16;77.95;102791.84;4914607;29;20079;-83
2021/12/16 00:45:35;;;;;;;62.80;49.70;;;;;;;4.09;78.11;102764.00;4931625;29;20479;-83
2021/12/16 00:48:03;;;;;;;60.67;52.20;;;;;;;4.17;77.89;102777.78;4931532;29;20058;-81
2021/12/16 00:55:51;;;;;;;64.67;53.40;;;;;;;4.14;77.58;102767.34;4931424;29;20061;-84
2021/12/16 00:58:23;;;;;;;61.83;53.23;;;;;;;3.60;77.59;102688.19;4931353;29;20558;-84
2021/12/16 01:01:00;;;;;;;62.47;52.90;;;;;;;3.61;77.92;102695.16;4930678;29;20066;-82
2021/12/16 01:03:37;;;;;;;61.73;52.93;;;;;;;4.15;78.16;102769.97;4914846;29;20115;-83
2021/12/16 01:34:05;;;;;;;60.80;50.80;;;;;;;4.26;77.73;102809.09;4931688;29;20421;-84
2021/12/16 01:50:10;;;;;;;54.63;46.95;;;;;;;3.96;77.39;102764.31;4932216;29;20505;-85
2021/12/16 01:55:17;;;;;;;59.53;50.63;;;;;;;4.17;77.43;102793.56;4930208;29;20099;-83
2021/12/16 01:57:52;;;;;;;58.80;48.93;;;;;;;4.28;77.57;102802.03;4914064;29;20056;-83
2021/12/16 02:00:28;;;;;;;55.83;48.17;;;;;;;4.28;77.50;102802.03;4930637;29;20055;-85
2021/12/16 02:03:05;;;;;;;61.13;49.93;;;;;;;3.87;76.75;102729.53;4929186;29;20138;-83
2021/12/16 02:08:21;;;;;;;56.27;47.70;;;;;;;4.22;77.63;102781.13;4930660;29;20059;-86
2021/12/16 02:11:20;;;;;;;58.22;48.25;;;;;;;3.79;77.16;102714.00;4928763;29;20189;-83
2021/12/16 02:28:29;;;;;;;60.10;48.23;;;;;;;4.20;76.75;102754.91;4911315;29;20083;-87
2021/12/16 02:36:15;;;;;;;60.00;48.30;;;;;;;4.25;77.19;102749.53;4911050;29;20114;-84
2021/12/16 02:38:46;;;;;;;53.40;47.10;;;;;;;4.29;76.99;102757.25;4894210;29;20064;-83
2021/12/16 02:41:14;;;;;;;56.97;46.28;;;;;;;4.33;77.16;102752.78;4894595;29;20056;-84
2021/12/16 02:44:08;;;;;;;54.97;47.40;;;;;;;4.35;76.85;102752.75;4894704;29;20082;-85
2021/12/16 02:49:13;;;;;;;53.73;46.27;;;;;;;4.33;76.54;102758.06;4910954;29;20052;-83
2021/12/16 02:51:42;;;;;;;52.83;44.90;;;;;;;4.27;76.21;102731.91;4894126;29;20135;-82
2021/12/16 02:54:09;;;;;;;51.07;44.20;;;;;;;4.36;76.54;102744.81;4894058;29;20171;-83
2021/12/16 02:56:36;;;;;;;52.63;43.43;;;;;;;4.41;76.36;102763.94;4910000;29;20079;-84
2021/12/16 02:59:04;;;;;;;49.90;42.37;;;;;;;4.04;76.48;102685.25;4894007;29;20083;-83
2021/12/16 03:01:42;;;;;;;52.27;43.00;;;;;;;4.47;76.24;102755.88;4894366;29;20086;-86
2021/12/16 03:04:13;;;;;;;48.60;42.37;;;;;;;4.16;76.03;102710.34;4894078;29;20120;-82
2021/12/16 03:06:44;;;;;;;45.95;40.95;;;;;;;3.82;75.71;102646.44;4896398;29;20111;-84
2021/12/16 03:09:14;;;;;;;49.90;40.60;;;;;;;4.41;76.46;102756.06;4898295;29;20052;-85
2021/12/16 03:12:28;;;;;;;46.00;39.93;;;;;;;4.39;76.04;102746.47;4913916;29;20048;-82
2021/12/16 03:14:48;;;;;;;49.70;40.10;;;;;;;4.38;75.97;102740.38;4914808;29;20048;-84
2021/12/16 03:17:26;;;;;;;49.20;39.10;;;;;;;4.09;76.49;102707.03;4914806;29;20091;-83
2021/12/16 03:20:06;;;;;;;48.50;37.87;;;;;;;4.22;76.47;102718.03;4913144;29;20335;-84
2021/12/16 03:28:16;;;;;;;42.83;37.03;;;;;;;4.35;76.48;102758.03;4914654;29;20056;-86
2021/12/16 03:33:42;;;;;;;42.42;35.95;;;;;;;4.11;76.52;102723.63;4914007;29;20337;-86
2021/12/16 03:36:15;;;;;;;42.10;34.73;;;;;;;4.07;76.08;102720.19;4913835;29;20260;-86
2021/12/16 03:38:45;;;;;;;40.10;33.73;;;;;;;4.35;76.17;102766.75;4897603;29;20066;-83
2021/12/16 03:41:13;;;;;;;39.67;32.27;;;;;;;4.35;76.09;102761.50;4897913;29;20155;-84
2021/12/16 03:43:40;;;;;;;39.30;33.93;;;;;;;4.32;75.96;102745.81;4898781;29;20052;-82
2021/12/16 03:48:52;;;;;;;40.03;32.57;;;;;;;4.01;76.18;102691.47;4920219;29;20056;-84
2021/12/16 03:51:33;;;;;;;42.00;34.10;;;;;;;4.30;75.81;102729.22;4922375;29;20044;-85
2021/12/16 03:54:14;;;;;;;42.13;33.83;;;;;;;3.60;75.92;102614.66;4910301;29;20300;-86
2021/12/16 03:56:42;;;;;;;38.80;34.27;;;;;;;4.19;76.10;102710.25;4911232;29;20111;-85
2021/12/16 03:59:11;;;;;;;45.23;35.10;;;;;;;4.31;76.38;102723.03;4922523;29;20143;-86
2021/12/16 04:01:38;;;;;;;41.17;34.33;;;;;;;3.80;76.36;102631.63;4918654;29;20443;-87
2021/12/16 04:04:05;;;;;;;40.50;35.13;;;;;;;4.33;76.06;102721.22;4896894;29;20054;-85
2021/12/16 04:06:35;;;;;;;39.50;34.80;;;;;;;3.70;75.82;102609.16;4913598;29;20155;-85
2021/12/16 04:09:07;;;;;;;43.57;36.13;;;;;;;3.90;76.28;102643.59;4912409;29;20139;-85
2021/12/16 04:11:42;;;;;;;40.03;34.60;;;;;;;4.31;76.50;102716.94;4911885;29;20056;-84
2021/12/16 04:14:13;;;;;;;39.73;33.57;;;;;;;3.99;76.66;102663.50;4913338;29;20052;-85
2021/12/16 04:16:46;;;;;;;37.93;32.17;;;;;;;4.30;76.06;102708.19;4896675;29;20056;-84
2021/12/16 04:19:19;;;;;;;39.00;32.70;;;;;;;4.12;76.26;102690.28;4913575;29;20052;-83
2021/12/16 04:21:52;;;;;;;41.13;31.87;;;;;;;4.18;76.39;102690.13;4896299;29;20087;-85
2021/12/16 04:24:19;;;;;;;;;;;;;;;4.23;76.61;102699.59;4896729;29;20051;-85
2021/12/16 04:26:50;;;;;;;34.33;29.60;;;;;;;4.20;76.39;102704.06;4909826;29;20013;-82
2021/12/16 04:29:18;;;;;;;36.60;30.80;;;;;;;3.60;76.41;102608.53;4914708;29;20052;-87
2021/12/16 04:31:48;;;;;;;34.40;29.70;;;;;;;4.13;76.58;102695.53;4915262;29;20043;-85
2021/12/16 04:34:15;;;;;;;41.07;33.03;;;;;;;3.58;76.30;102599.84;4914854;29;20052;-83
2021/12/16 04:36:43;;;;;;;36.63;32.67;;;;;;;3.89;76.80;102662.91;4915126;29;20440;-83
2021/12/16 04:39:19;;;;;;;43.03;34.47;;;;;;;3.95;76.85;102678.50;4914528;29;20056;-83
2021/12/16 04:41:50;;;;;;;46.37;37.13;;;;;;;4.10;76.32;102702.63;4931484;29;20465;-82
2021/12/16 04:44:17;;;;;;;42.90;37.07;;;;;;;3.87;76.66;102654.19;4915097;29;20059;-82
2021/12/16 04:46:45;;;;;;;45.00;37.73;;;;;;;4.10;76.39;102695.59;4914921;29;20051;-81
2021/12/16 04:49:17;;;;;;;44.67;38.40;;;;;;;4.06;76.67;102700.09;4914758;29;20060;-84
2021/12/16 04:51:47;;;;;;;46.72;39.35;;;;;;;3.99;76.30;102688.00;4914956;29;20146;-87
2021/12/16 04:54:18;;;;;;;41.83;35.40;;;;;;;3.85;76.30;102640.25;4931586;29;20047;-82
2021/12/16 04:56:46;;;;;;;43.10;35.80;;;;;;;3.92;77.01;102646.19;4914452;29;20469;-82
2021/12/16 04:59:15;;;;;;;43.10;37.33;;;;;;;3.79;76.64;102645.69;4930485;29;20048;-83
2021/12/16 05:01:46;;;;;;;46.43;37.10;;;;;;;3.98;76.54;102686.31;4931506;29;20602;-83
2021/12/16 05:04:13;;;;;;;45.23;36.73;;;;;;;3.91;76.88;102670.72;4930814;29;20054;-83
2021/12/16 05:06:40;;;;;;;47.07;38.77;;;;;;;3.99;76.78;102666.13;4932312;29;20059;-83
2021/12/16 05:09:08;;;;;;;53.90;40.97;;;;;;;3.90;76.43;102648.84;4915126;29;20051;-83
2021/12/16 05:11:36;;;;;;;45.17;39.90;;;;;;;4.07;76.77;102678.13;4915151;29;20166;-83
2021/12/16 05:14:07;;;;;;;46.13;39.20;;;;;;;4.13;76.34;102698.16;4931455;29;20646;-82
2021/12/16 05:16:34;;;;;;;52.40;41.17;;;;;;;4.10;76.79;102692.09;4915109;29;20551;-83
2021/12/16 05:19:01;;;;;;;45.97;40.83;;;;;;;4.21;76.69;102695.28;4930418;29;20142;-86
2021/12/16 05:21:53;;;;;;;47.50;41.00;;;;;;;3.78;76.10;102629.03;4930549;29;20051;-86
2021/12/16 05:24:26;;;;;;;47.13;39.08;;;;;;;3.88;76.23;102653.28;4914839;29;20056;-84
2021/12/16 05:26:56;;;;;;;46.17;38.83;;;;;;;4.27;75.88;102721.41;4931490;29;20044;-84
2021/12/16 05:29:26;;;;;;;54.67;44.03;;;;;;;4.35;76.59;102708.06;4929329;29;20067;-83
2021/12/16 05:31:53;;;;;;;49.30;42.10;;;;;;;4.29;75.83;102699.41;4913946;29;20055;-84
2021/12/16 05:34:22;;;;;;;48.37;42.47;;;;;;;3.80;76.02;102626.38;4931310;29;20060;-83
2021/12/16 05:36:49;;;;;;;56.57;44.87;;;;;;;4.33;76.23;102718.59;4915079;29;20052;-83
2021/12/16 05:39:20;;;;;;;53.83;45.33;;;;;;;4.25;76.20;102704.84;4930961;29;20281;-83
2021/12/16 05:41:47;;;;;;;53.10;43.10;;;;;;;4.33;75.95;102710.72;4915235;29;20062;-82
2021/12/16 05:44:15;;;;;;;53.53;45.07;;;;;;;4.38;75.97;102729.84;4915108;29;20142;-86
2021/12/16 05:46:42;;;;;;;51.73;43.73;;;;;;;4.37;75.56;102725.50;4929988;29;20139;-85
2021/12/16 05:49:13;;;;;;;50.13;42.73;;;;;;;4.20;75.73;102704.06;4926478;29;20419;-84
2021/12/16 05:51:42;;;;;;;55.10;42.83;;;;;;;4.31;76.15;102723.03;4928930;29;20059;-86
2021/12/16 05:54:10;;;;;;;55.03;44.23;;;;;;;4.46;76.24;102742.78;4930694;29;20376;-85
2021/12/16 05:56:38;;;;;;;48.00;40.70;;;;;;;4.27;75.54;102716.13;4930090;29;20061;-83
2021/12/16 05:59:06;;;;;;;46.37;39.27;;;;;;;4.37;75.51;102748.28;4929357;29;20048;-84
2021/12/16 06:01:55;;;;;;;52.13;41.23;;;;;;;3.35;74.91;102588.22;4924105;29;20051;-86
2021/12/16 06:04:23;;;;;;;44.93;39.47;;;;;;;3.82;75.03;102656.09;4909787;29;20063;-85
2021/12/16 06:06:56;;;;;;;48.70;39.23;;;;;;;3.31;75.15;102556.81;4910587;29;20058;-84
2021/12/16 06:09:22;;;;;;;45.47;37.10;;;;;;;2.50;75.04;102428.66;4893506;29;20563;-85
2021/12/16 06:11:51;;;;;;;48.60;40.70;;;;;;;4.21;75.31;102726.84;4908707;29;20098;-84
2021/12/16 06:27:46;;;;;;;44.07;35.93;;;;;;;3.96;75.82;102724.06;4928965;29;20138;-84
2021/12/16 06:30:17;;;;;;;39.33;34.90;;;;;;;4.09;75.35;102742.97;4911852;29;20094;-85
2021/12/16 06:32:44;;;;;;;45.53;36.37;;;;;;;4.00;75.68;102723.03;4929486;29;20401;-88
2021/12/16 06:35:11;;;;;;;43.07;36.20;;;;;;;3.89;75.54;102701.47;4912194;29;20056;-87
2021/12/16 06:37:38;;;;;;;39.05;32.80;;;;;;;2.93;75.58;102550.81;4911456;29;20546;-86
2021/12/16 06:40:07;;;;;;;40.07;34.17;;;;;;;2.41;76.07;102486.59;4911937;29;20074;-84
2021/12/16 06:42:37;;;;;;;42.00;35.17;;;;;;;4.07;75.98;102762.25;4932197;29;20051;-82
2021/12/16 06:45:10;;;;;;;40.43;34.37;;;;;;;2.93;76.15;102563.94;4933443;29;20055;-84
2021/12/16 06:47:49;;;;;;;41.50;34.53;;;;;;;3.96;75.79;102734.56;4931710;29;20058;-85
2021/12/16 06:53:20;;;;;;;39.53;33.37;;;;;;;3.93;76.36;102725.00;4903247;29;20043;-85
2021/12/16 06:55:57;;;;;;;39.27;32.17;;;;;;;4.15;76.64;102758.56;4915388;29;20062;-85
2021/12/16 06:58:36;;;;;;;35.83;30.67;;;;;;;3.96;76.41;102701.25;4915668;29;20048;-86
2021/12/16 07:01:13;;;;;;;36.07;30.47;;;;;;;4.05;76.58;102722.03;4921645;29;20115;-88
2021/12/16 07:03:49;;;;;;;38.77;32.20;;;;;;;4.19;76.14;102733.91;4956037;29;20055;-86
2021/12/16 07:06:28;;;;;;;36.23;31.03;;;;;;;3.45;75.85;102619.44;4941933;29;20059;-86
2021/12/16 07:09:09;;;;;;;40.77;31.17;;;;;;;3.50;75.88;102618.44;4922505;29;20087;-85
2021/12/16 07:11:47;;;;;;;38.27;30.07;;;;;;;3.71;75.99;102648.50;4916560;29;20129;-85
2021/12/16 07:14:17;;;;;;;38.70;29.77;;;;;;;2.51;75.86;102426.00;4917791;29;20098;-86
2021/12/16 07:16:52;;;;;;;34.27;27.30;;;;;;;2.88;76.06;102474.00;4933690;29;20511;-84
2021/12/16 07:19:18;;;;;;;34.13;27.70;;;;;;;3.17;75.88;102537.06;4932502;29;20054;-86
2021/12/16 07:21:45;;;;;;;31.23;27.83;;;;;;;3.78;75.93;102636.06;4932841;29;20056;-84
2021/12/16 07:24:16;;;;;;;32.43;27.97;;;;;;;4.49;75.90;102754.09;4931627;29;20055;-87
2021/12/16 07:26:43;;;;;;;31.43;27.23;;;;;;;3.46;75.51;102569.53;4924884;29;20258;-83
2021/12/16 07:29:11;;;;;;;33.27;28.10;;;;;;;4.57;75.44;102739.84;4931819;29;20106;-84
2021/12/16 07:31:40;;;;;;;32.83;28.60;;;;;;;4.20;75.48;102683.94;4932110;29;20083;-88
2021/12/16 07:34:09;;;;;;;32.20;28.73;;;;;;;4.47;75.52;102728.72;4930496;29;20472;-83
2021/12/16 07:36:39;;;;;;;33.40;27.60;;;;;;;4.15;75.86;102658.66;4931608;29;20047;-85
2021/12/16 07:39:08;;;;;;;33.83;28.37;;;;;;;4.67;75.33;102730.75;4947272;29;20102;-84
2021/12/16 07:41:38;;;;;;;35.63;30.90;;;;;;;4.72;74.87;102755.16;4931810;29;20504;-83
2021/12/16 07:44:10;;;;;;;34.27;30.57;;;;;;;4.74;75.41;102756.00;4931459;29;20047;-86
2021/12/16 07:46:40;;;;;;;36.10;30.40;;;;;;;4.76;74.78;102764.69;4946836;29;20319;-84
2021/12/16 07:49:12;;;;;;;35.90;30.07;;;;;;;4.76;74.91;102761.19;4930780;29;20171;-85
2021/12/16 07:51:40;;;;;;;35.15;29.85;;;;;;;4.27;75.15;102687.22;4931831;29;20062;-85
2021/12/16 07:54:07;;;;;;;33.20;28.50;;;;;;;4.76;75.08;102755.91;4931997;29;20056;-82
2021/12/16 07:56:34;;;;;;;35.73;27.43;;;;;;;4.60;74.62;102729.22;4932495;29;20260;-83
2021/12/16 07:59:04;;;;;;;32.13;26.57;;;;;;;4.62;74.58;102736.16;4933011;29;20055;-84
2021/12/16 08:01:31;;;;;;;30.17;25.20;;;;;;;4.56;74.58;102714.44;4934628;29;20317;-83
2021/12/16 08:03:59;;;;;;;30.23;27.03;;;;;;;4.45;74.75;102705.09;4951160;29;20051;-83
2021/12/16 08:06:32;;;;;;;32.57;27.00;;;;;;;3.55;74.29;102555.28;4951053;29;20138;-82
2021/12/16 08:09:07;;;;;;;32.95;25.83;;;;;;;4.44;74.37;102700.75;4951128;29;20317;-83
2021/12/16 08:11:37;;;;;;;31.40;27.00;;;;;;;2.97;74.73;102445.75;4951909;29;20519;-85
2021/12/16 08:14:07;;;;;;;31.40;27.67;;;;;;;4.47;74.65;102682.25;4950854;29;20175;-84
2021/12/16 08:16:35;;;;;;;28.47;25.47;;;;;;;4.03;74.25;102602.06;4933446;29;20082;-85
2021/12/16 08:19:02;;;;;;;30.20;26.90;;;;;;;3.82;74.38;102561.50;4949798;29;20483;-82
2021/12/16 08:21:29;;;;;;;32.63;28.17;;;;;;;4.97;74.78;102763.16;4950304;29;20077;-84
2021/12/16 08:23:59;;;;;;;31.77;28.00;;;;;;;4.85;74.00;102724.06;4948422;29;20052;-84
2021/12/16 08:26:27;;;;;;;32.93;27.83;;;;;;;4.72;74.17;102700.75;4921462;29;20138;-82
2021/12/16 08:28:55;;;;;;;33.07;28.23;;;;;;;4.99;74.30;102740.28;4930554;29;20083;-84
2021/12/16 08:31:22;;;;;;;31.67;27.17;;;;;;;4.87;73.77;102717.00;4913676;29;20048;-84
2021/12/16 08:33:49;;;;;;;32.13;28.23;;;;;;;5.10;73.47;102734.72;4930096;29;20056;-83
2021/12/16 08:36:17;;;;;;;34.50;29.00;;;;;;;5.12;73.70;102739.00;4928801;29;20456;-83
2021/12/16 08:38:45;;;;;;;37.87;31.70;;;;;;;5.17;73.23;102717.81;4913968;29;20499;-83
2021/12/16 08:41:20;;;;;;;36.37;31.60;;;;;;;5.09;73.21;102707.50;4931242;29;20490;-82
2021/12/16 08:43:47;;;;;;;45.83;37.47;;;;;;;5.05;73.13;102695.38;4931466;29;20134;-85
2021/12/16 08:46:16;;;;;;;45.63;36.17;;;;;;;5.28;73.06;102738.50;4932188;29;20043;-84
2021/12/16 08:48:44;;;;;;;48.30;37.23;;;;;;;5.22;73.40;102726.41;4931299;29;20066;-83
2021/12/16 08:51:13;;;;;;;47.17;39.10;;;;;;;5.40;72.68;102755.69;4914461;29;20480;-82
2021/12/16 08:53:40;;;;;;;49.50;41.77;;;;;;;5.17;72.90;102699.38;4914609;29;20085;-79
2021/12/16 08:56:12;;;;;;;52.20;41.40;;;;;;;5.43;73.06;102742.41;4930979;29;20090;-85
2021/12/16 08:58:41;;;;;;;;;;;;;;;5.42;72.67;102740.69;4914728;29;20135;-84
2021/12/16 09:01:15;;;;;;;47.10;38.60;;;;;;;4.91;72.68;102655.47;4931268;29;19949;-84
2021/12/16 09:03:41;;;;;;;47.60;38.50;;;;;;;5.47;72.49;102742.25;4910060;29;20079;-86
2021/12/16 09:06:09;;;;;;;45.13;36.67;;;;;;;5.56;72.77;102757.75;4911056;29;20052;-84
2021/12/16 09:08:36;;;;;;;47.40;38.97;;;;;;;5.61;72.08;102762.88;4910577;29;20488;-84
2021/12/16 09:11:07;;;;;;;48.03;38.27;;;;;;;5.65;72.00;102761.84;4910822;29;20080;-85
2021/12/16 09:13:38;;;;;;;50.83;41.43;;;;;;;5.56;71.64;102743.75;4895573;29;20504;-84
2021/12/16 09:16:09;;;;;;;53.30;43.93;;;;;;;5.55;71.21;102742.00;4911960;29;20079;-83
2021/12/16 09:18:41;;;;;;;55.87;46.93;;;;;;;5.45;71.57;102704.56;4912386;29;20662;-82
2021/12/16 09:21:15;;;;;;;56.40;47.63;;;;;;;5.73;71.88;102743.16;4910434;29;20516;-83
2021/12/16 09:23:45;;;;;;;57.60;47.53;;;;;;;5.81;71.66;102750.81;4910630;29;20584;-82
2021/12/16 09:26:14;;;;;;;60.13;49.43;;;;;;;5.55;71.64;102692.78;4903945;29;20072;-83
2021/12/16 09:28:44;;;;;;;59.93;47.00;;;;;;;5.86;71.25;102752.34;4911418;29;20088;-81
2021/12/16 09:31:18;;;;;;;62.23;49.33;;;;;;;5.86;71.26;102748.88;4911428;29;20477;-85
2021/12/16 09:33:49;;;;;;;61.73;51.30;;;;;;;5.88;71.59;102734.72;4894910;29;20048;-82
2021/12/16 09:36:20;;;;;;;62.03;49.73;;;;;;;6.04;71.19;102750.88;4895091;29;20040;-83
2021/12/16 09:38:49;;;;;;;58.80;48.13;;;;;;;5.68;70.57;102674.81;4894995;29;20052;-82
2021/12/16 09:41:18;;;;;;;50.43;42.87;;;;;;;6.18;70.54;102742.47;4895156;29;20052;-81
2021/12/16 09:43:47;;;;;;;53.83;46.45;;;;;;;6.13;70.33;102734.72;4894574;29;20084;-83
2021/12/16 09:46:22;;;;;;;65.65;52.30;;;;;;;6.25;70.04;102740.47;4911254;29;20134;-83
2021/12/16 09:48:50;;;;;;;58.88;50.20;;;;;;;6.20;70.05;102735.38;4894739;29;20048;-81
2021/12/16 09:51:24;;;;;;;57.53;49.30;;;;;;;6.13;70.08;102708.34;4894928;29;20139;-82
2021/12/16 09:53:58;;;;;;;56.77;48.63;;;;;;;6.24;69.89;102725.56;4894782;29;20528;-83
2021/12/16 09:56:27;;;;;;;63.35;50.88;;;;;;;5.62;70.12;102627.56;4894479;29;20049;-84
2021/12/16 09:58:56;;;;;;;64.40;50.63;;;;;;;5.94;70.03;102655.41;4911641;29;20142;-82
2021/12/16 10:01:24;;;;;;;54.67;48.38;;;;;;;6.12;70.06;102696.09;4894881;29;20048;-84
2021/12/16 10:04:00;;;;;;;61.83;49.05;;;;;;;6.35;69.66;102721.59;4930052;29;20063;-82
2021/12/16 10:06:30;;;;;;;63.38;51.72;;;;;;;6.10;70.00;102681.25;4930802;29;20051;-85
2021/12/16 10:09:00;;;;;;;57.50;50.65;;;;;;;6.39;70.59;102730.28;4929780;29;20578;-84
2021/12/16 10:11:28;;;;;;;62.40;51.70;;;;;;;6.00;70.04;102659.63;4935057;29;20067;-84
2021/12/16 10:19:13;;;;;;;64.88;55.25;;;;;;;6.54;69.64;102724.41;4935223;29;20143;-84
2021/12/16 10:21:42;;;;;;;66.85;55.10;;;;;;;6.50;69.63;102712.25;4915449;29;20067;-82
2021/12/16 10:24:27;;;;;;;69.97;56.35;;;;;;;6.70;69.59;102718.53;4931597;29;20063;-87
2021/12/16 10:27:10;;;;;;;68.10;54.28;;;;;;;6.17;69.33;102636.13;4929543;29;20150;-84
2021/12/16 10:29:59;;;;;;;60.95;52.72;;;;;;;6.53;69.72;102683.13;4928732;29;20151;-82
2021/12/16 10:32:31;;;;;;;68.25;54.17;;;;;;;6.78;68.93;102721.75;4929198;29;20150;-85
2021/12/16 10:35:00;;;;;;;69.50;55.92;;;;;;;6.83;69.15;102725.06;4928728;29;20118;-83
2021/12/16 10:37:32;;;;;;;63.20;53.25;;;;;;;6.82;69.02;102718.06;4926002;29;20098;-84
2021/12/16 10:40:21;;;;;;;63.28;52.17;;;;;;;6.80;68.93;102709.38;4911107;29;20062;-83
2021/12/16 10:42:49;;;;;;;63.42;51.38;;;;;;;6.84;69.12;102706.53;4928046;29;20140;-84
2021/12/16 10:45:29;;;;;;;62.25;51.75;;;;;;;6.36;69.06;102617.81;4910848;29;20067;-83
2021/12/16 10:48:21;;;;;;;63.85;54.53;;;;;;;6.87;68.97;102710.84;4928219;29;20154;-82
2021/12/16 10:51:16;;;;;;;64.55;53.38;;;;;;;6.44;69.29;102632.50;4911309;29;20583;-83
2021/12/16 10:53:57;;;;;;;62.30;51.93;;;;;;;6.88;69.19;102687.94;4912022;29;20576;-85
2021/12/16 10:56:36;;;;;;;61.97;52.20;;;;;;;7.13;68.10;102701.84;4911296;29;20055;-83
2021/12/16 10:59:14;;;;;;;61.88;51.55;;;;;;;7.29;68.40;102702.09;4910267;29;20078;-83
2021/12/16 11:01:50;;;;;;;66.93;52.08;;;;;;;7.40;67.68;102697.22;4926624;29;20099;-84
2021/12/16 11:04:55;;;;;;;64.03;54.45;;;;;;;7.40;67.68;102689.28;4909155;29;20067;-83
2021/12/16 11:07:32;;;;;;;64.97;55.50;;;;;;;7.51;67.51;102701.19;4873392;29;20432;-84
2021/12/16 11:10:20;;;;;;;67.30;58.05;;;;;;;7.54;67.65;102707.19;4935046;29;20068;-84
2021/12/16 11:12:54;;;;;;;70.93;56.95;;;;;;;7.13;67.08;102624.38;4926798;29;20498;-84
2021/12/16 11:15:31;;;;;;;67.72;59.03;;;;;;;7.59;67.32;102693.78;4926896;29;20071;-85
2021/12/16 11:18:14;;;;;;;73.28;58.25;;;;;;;7.60;66.78;102690.22;4927146;29;20090;-82
2021/12/16 11:20:46;;;;;;;70.60;59.90;;;;;;;7.59;66.72;102688.50;4926816;29;20106;-85
2021/12/16 11:23:23;;;;;;;68.28;57.65;;;;;;;7.26;67.45;102634.38;4934092;29;20184;-85
2021/12/16 11:25:51;;;;;;;68.47;58.92;;;;;;;7.02;66.88;102586.09;4927789;29;20485;-85
2021/12/16 11:28:28;;;;;;;70.15;57.08;;;;;;;7.55;66.82;102664.00;4929614;29;20050;-83
2021/12/16 11:30:59;;;;;;;64.10;52.20;;;;;;;7.63;66.20;102696.22;4932226;29;20131;-81
2021/12/16 11:33:32;;;;;;;64.20;55.15;;;;;;;7.57;66.44;102685.06;4930760;29;20063;-83
2021/12/16 11:36:34;;;;;;;73.07;58.45;;;;;;;7.61;67.08;102697.22;4930942;29;20071;-84
2021/12/16 11:39:07;;;;;;;63.93;54.93;;;;;;;7.60;66.95;102698.16;4914770;29;20460;-85
2021/12/16 11:41:38;;;;;;;66.70;57.13;;;;;;;7.57;67.45;102680.63;4917946;29;20398;-83
2021/12/16 11:44:25;;;;;;;70.70;60.25;;;;;;;7.64;67.97;102679.44;4930873;29;20059;-85
2021/12/16 11:46:57;;;;;;;71.55;62.28;;;;;;;7.45;67.77;102647.66;4946331;29;20139;-83
2021/12/16 11:49:31;;;;;;;82.25;64.57;;;;;;;7.67;67.86;102676.66;4930457;29;20514;-84
2021/12/16 11:52:06;;;;;;;77.82;66.03;;;;;;;6.71;67.73;102509.97;4929962;29;20695;-84
2021/12/16 11:54:40;;;;;;;77.07;65.22;;;;;;;7.42;67.97;102629.28;4930580;29;20048;-84
2021/12/16 11:57:14;;;;;;;77.63;67.13;;;;;;;7.66;68.13;102664.34;4914811;29;20147;-83
2021/12/16 11:59:56;;;;;;;81.50;65.38;;;;;;;7.63;67.58;102663.66;4931597;29;20063;-82
2021/12/16 12:02:46;;;;;;;81.80;65.22;;;;;;;7.36;67.67;102624.28;4930491;29;20058;-83
2021/12/16 12:05:33;;;;;;;82.22;65.30;;;;;;;7.70;68.06;102675.69;4929787;29;20062;-84
2021/12/16 12:08:03;;;;;;;75.82;62.70;;;;;;;7.68;68.04;102672.25;4913533;29;20055;-81
2021/12/16 12:10:53;;;;;;;75.68;62.13;;;;;;;7.73;67.83;102666.75;4929859;29;20094;-82
2021/12/16 12:13:24;;;;;;;75.05;62.53;;;;;;;7.53;67.79;102633.25;4929888;29;20055;-84
2021/12/16 12:16:09;;;;;;;78.68;63.28;;;;;;;7.71;67.70;102680.03;4913690;29;20052;-85
2021/12/16 12:18:44;;;;;;;74.13;63.10;;;;;;;7.45;68.05;102633.56;4924126;29;20054;-85
2021/12/16 12:21:28;;;;;;;77.43;63.08;;;;;;;7.39;68.09;102624.13;4929410;29;20134;-85
2021/12/16 12:24:00;;;;;;;72.07;61.45;;;;;;;7.55;67.91;102636.66;4930140;29;20611;-82
2021/12/16 12:26:29;;;;;;;69.55;61.45;;;;;;;7.88;67.60;102680.13;4914171;29;20048;-84
2021/12/16 12:29:00;;;;;;;72.45;60.67;;;;;;;7.84;67.34;102678.56;4930624;29;20062;-84
2021/12/16 12:31:31;;;;;;;69.65;60.75;;;;;;;7.47;67.70;102622.00;4931443;29;20047;-84
2021/12/16 12:33:58;;;;;;;77.78;61.72;;;;;;;7.49;67.88;102614.88;4932697;29;20253;-84
2021/12/16 12:36:25;;;;;;;71.43;61.05;;;;;;;7.91;67.67;102672.09;4931285;29;20060;-82
2021/12/16 12:38:53;;;;;;;76.93;63.30;;;;;;;7.89;67.60;102670.44;4929451;29;20107;-83
2021/12/16 12:41:21;;;;;;;75.20;62.50;;;;;;;7.66;67.53;102637.91;4929454;29;20456;-84
2021/12/16 12:43:50;;;;;;;73.10;63.92;;;;;;;6.99;67.71;102525.50;4914432;29;20058;-83
2021/12/16 12:46:18;;;;;;;68.70;60.10;;;;;;;7.38;67.70;102574.00;4930199;29;20051;-84
2021/12/16 12:48:47;;;;;;;80.38;62.78;;;;;;;7.46;68.00;102593.03;4929279;29;20532;-84
2021/12/16 12:51:14;;;;;;;76.32;64.93;;;;;;;7.49;67.93;102595.53;4928922;29;20440;-84
2021/12/16 12:53:52;;;;;;;75.22;64.43;;;;;;;6.78;67.45;102463.03;4929145;29;20047;-85
2021/12/16 12:56:23;;;;;;;75.50;62.50;;;;;;;8.00;68.04;102660.22;4928971;29;20075;-84
2021/12/16 12:58:58;;;;;;;76.85;63.90;;;;;;;8.08;67.30;102644.00;4928886;29;20056;-85
2021/12/16 13:01:41;;;;;;;76.93;64.18;;;;;;;8.01;67.64;102642.56;4929488;29;20710;-83
2021/12/16 13:04:12;;;;;;;76.75;63.17;;;;;;;7.51;67.03;102564.59;4949242;29;20415;-83
2021/12/16 13:06:58;;;;;;;77.57;62.70;;;;;;;7.85;67.38;102618.59;4949155;29;20051;-82
2021/12/16 13:09:48;;;;;;;73.38;64.25;;;;;;;7.23;67.17;102518.28;4949064;29;20051;-84
2021/12/16 13:12:21;;;;;;;72.68;60.88;;;;;;;7.62;66.98;102566.75;4949895;29;20076;-82
2021/12/16 13:14:51;;;;;;;71.53;61.10;;;;;;;7.89;66.98;102607.81;4950226;29;20457;-83
2021/12/16 13:28:43;;;;;;;72.50;58.58;;;;;;;7.98;67.03;102613.59;4929516;29;20290;-82
2021/12/16 13:31:24;;;;;;;75.03;63.30;;;;;;;7.71;66.94;102559.25;4913738;29;20056;-84
2021/12/16 13:33:59;;;;;;;71.28;60.42;;;;;;;8.09;67.22;102629.84;4929350;29;20115;-83
2021/12/16 13:36:57;;;;;;;76.55;61.78;;;;;;;8.12;67.04;102635.84;4912517;29;20069;-84
2021/12/16 13:39:29;;;;;;;74.68;61.17;;;;;;;7.69;67.48;102577.00;4912782;29;20091;-83
2021/12/16 13:42:01;;;;;;;73.05;60.80;;;;;;;6.80;66.76;102440.09;4928776;29;20635;-83
2021/12/16 13:44:40;;;;;;;70.97;60.95;;;;;;;8.03;66.79;102636.25;4911731;29;20488;-83
2021/12/16 13:47:26;;;;;;;73.35;59.67;;;;;;;7.37;67.88;102530.84;4927590;29;20506;-84
2021/12/16 14:02:14;;;;;;;83.18;61.72;;;;;;;8.12;68.90;102645.56;4939997;29;20119;-83
2021/12/16 14:04:52;;;;;;;74.97;62.47;;;;;;;7.42;67.83;102526.22;4925440;29;20475;-85
2021/12/16 14:07:51;;;;;;;77.45;61.30;;;;;;;6.64;67.59;102395.88;4928246;29;20078;-87
2021/12/16 14:10:33;;;;;;;68.55;58.72;;;;;;;7.31;68.22;102501.22;4936938;29;20106;-84
2021/12/16 14:16:27;;;;;;;76.97;61.45;;;;;;;8.14;67.93;102649.00;4929108;29;20055;-83
2021/12/16 14:36:12;;;;;;;73.55;62.80;;;;;;;6.34;68.96;102370.81;4928690;29;20051;-84
2021/12/16 14:38:54;;;;;;;73.32;60.35;;;;;;;7.51;68.97;102574.31;4928398;29;20063;-83
2021/12/16 14:49:43;;;;;;;70.93;60.55;;;;;;;6.98;68.61;102501.78;4928374;29;20056;-85